Time;durP1;ratioP1;P1;durP2;ratioP2;P2;SDS_P1;SDS_P2;PMS_P1;PMS_P2;Temp;Humidity;BMP_temperature;BMP_pressure;BME280_temperature;BME280_humidity;BME280_pressure;Samples;Min_cycle;Max_cycle;Signal;HPM_P1;HPM_P2
2022/04/05 00:01:52;;;;;;;6.20;3.97;;;;;;;;;;4951786;28;20433;-64
2022/04/05 00:04:17;;;;;;;7.97;4.72;;;;;;;;;;4951562;28;20492;-64
2022/04/05 00:06:43;;;;;;;9.65;5.15;;;;;;;;;;4952792;28;20398;-64
2022/04/05 00:09:08;;;;;;;9.07;5.03;;;;;;;;;;4951389;28;20731;-64
2022/04/05 00:11:33;;;;;;;7.95;4.72;;;;;;;;;;4951199;28;20133;-64
2022/04/05 00:14:00;;;;;;;9.85;4.68;;;;;;;;;;4952292;28;20433;-65
2022/04/05 00:16:26;;;;;;;6.95;4.80;;;;;;;;;;4952325;28;20381;-64
2022/04/05 00:18:51;;;;;;;7.45;4.47;;;;;;;;;;4950460;28;20409;-64
2022/04/05 00:21:16;;;;;;;7.82;4.15;;;;;;;;;;4952848;28;20437;-64
2022/04/05 00:23:41;;;;;;;9.30;4.88;;;;;;;;;;4951825;28;20026;-63
2022/04/05 00:26:07;;;;;;;8.32;4.65;;;;;;;;;;4951255;28;20053;-64
2022/04/05 00:28:33;;;;;;;6.43;4.53;;;;;;;;;;4951756;28;20465;-64
2022/04/05 00:30:58;;;;;;;11.07;5.10;;;;;;;;;;4952977;28;20409;-64
2022/04/05 00:33:23;;;;;;;9.55;5.72;;;;;;;;;;4951063;28;20384;-63
2022/04/05 00:35:49;;;;;;;9.35;5.20;;;;;;;;;;4951192;28;20048;-64
2022/04/05 00:38:14;;;;;;;7.60;4.88;;;;;;;;;;4950345;28;20483;-64
2022/04/05 00:40:39;;;;;;;7.13;4.72;;;;;;;;;;4950871;28;20373;-64
2022/04/05 00:43:05;;;;;;;6.00;3.97;;;;;;;;;;4952351;28;20330;-64
2022/04/05 00:45:32;;;;;;;6.93;4.20;;;;;;;;;;4952027;28;20483;-64
2022/04/05 00:47:59;;;;;;;7.70;4.38;;;;;;;;;;4950771;28;20172;-63
2022/04/05 00:50:27;;;;;;;5.35;4.20;;;;;;;;;;4950810;28;20377;-64
2022/04/05 00:52:52;;;;;;;6.88;4.72;;;;;;;;;;4950881;28;20540;-63
2022/04/05 00:55:22;;;;;;;7.53;4.78;;;;;;;;;;4950801;28;20449;-64
2022/04/05 00:57:51;;;;;;;8.30;5.10;;;;;;;;;;4950983;28;20397;-64
2022/04/05 01:00:17;;;;;;;8.23;4.63;;;;;;;;;;4953337;28;20428;-63
2022/04/05 01:02:43;;;;;;;6.47;4.63;;;;;;;;;;4958864;28;20437;-64
2022/04/05 01:05:09;;;;;;;6.70;4.63;;;;;;;;;;4950128;28;20393;-64
2022/04/05 01:07:39;;;;;;;7.13;4.75;;;;;;;;;;4952254;28;20492;-64
2022/04/05 01:10:08;;;;;;;7.93;4.90;;;;;;;;;;4950151;28;20131;-64
2022/04/05 01:12:33;;;;;;;11.55;4.43;;;;;;;;;;4950562;28;20111;-64
2022/04/05 01:14:58;;;;;;;7.47;4.38;;;;;;;;;;4951295;28;20500;-63
2022/04/05 01:17:24;;;;;;;6.32;4.78;;;;;;;;;;4949965;28;20064;-64
2022/04/05 01:19:49;;;;;;;7.40;4.45;;;;;;;;;;4952534;28;20404;-64
2022/04/05 01:22:15;;;;;;;9.52;5.68;;;;;;;;;;4950437;28;20496;-63
2022/04/05 01:24:40;;;;;;;10.63;5.20;;;;;;;;;;4951056;28;20053;-63
2022/04/05 01:27:06;;;;;;;9.50;4.88;;;;;;;;;;4950214;28;20490;-64
2022/04/05 01:29:32;;;;;;;6.15;4.63;;;;;;;;;;4949913;28;20417;-63
2022/04/05 01:32:01;;;;;;;7.38;4.88;;;;;;;;;;4949509;28;20444;-63
2022/04/05 01:34:28;;;;;;;8.60;4.88;;;;;;;;;;4949817;28;20022;-63
2022/04/05 01:36:55;;;;;;;9.27;4.97;;;;;;;;;;4950341;28;20396;-63
2022/04/05 01:39:22;;;;;;;6.63;4.43;;;;;;;;;;4949711;28;20350;-64
2022/04/05 01:42:05;;;;;;;7.38;4.53;;;;;;;;;;4949901;28;20361;-63
2022/04/05 01:44:32;;;;;;;5.85;4.05;;;;;;;;;;4949934;28;20026;-63
2022/04/05 01:47:07;;;;;;;8.48;5.38;;;;;;;;;;4949719;28;20469;-63
2022/04/05 01:49:32;;;;;;;7.60;4.60;;;;;;;;;;4949969;28;20418;-64
2022/04/05 01:51:58;;;;;;;6.80;4.45;;;;;;;;;;4949898;28;20356;-63
2022/04/05 01:54:23;;;;;;;5.97;4.15;;;;;;;;;;4950322;28;20368;-63
2022/04/05 01:56:49;;;;;;;8.40;4.70;;;;;;;;;;4949415;28;20524;-63
2022/04/05 01:59:20;;;;;;;6.05;4.32;;;;;;;;;;4950047;28;20401;-64
2022/04/05 02:01:46;;;;;;;6.90;4.88;;;;;;;;;;4950033;28;20038;-64
2022/04/05 02:04:12;;;;;;;10.10;4.13;;;;;;;;;;4933030;28;20052;-63
2022/04/05 02:06:38;;;;;;;6.35;4.65;;;;;;;;;;4950021;28;20311;-63
2022/04/05 02:09:04;;;;;;;5.90;4.30;;;;;;;;;;4949667;28;20029;-63
2022/04/05 02:11:29;;;;;;;6.43;3.92;;;;;;;;;;4949639;28;20472;-63
2022/04/05 02:13:54;;;;;;;8.27;4.50;;;;;;;;;;4949946;28;20544;-63
2022/04/05 02:16:19;;;;;;;4.53;4.03;;;;;;;;;;4949836;28;20472;-63
2022/04/05 02:18:45;;;;;;;5.13;4.18;;;;;;;;;;4949843;28;20463;-63
2022/04/05 02:21:10;;;;;;;6.78;4.30;;;;;;;;;;4950531;28;20033;-63
2022/04/05 02:23:36;;;;;;;6.80;4.03;;;;;;;;;;4950799;28;20409;-63
2022/04/05 02:26:01;;;;;;;5.85;3.97;;;;;;;;;;4949449;28;20196;-63
2022/04/05 02:28:28;;;;;;;5.38;4.25;;;;;;;;;;4949565;28;20464;-63
2022/04/05 02:30:53;;;;;;;5.68;4.07;;;;;;;;;;4949743;28;20469;-63
2022/04/05 02:33:19;;;;;;;5.90;4.15;;;;;;;;;;4949422;28;20575;-62
2022/04/05 02:35:45;;;;;;;5.28;4.05;;;;;;;;;;4949762;28;20509;-63
2022/04/05 02:38:10;;;;;;;7.93;4.32;;;;;;;;;;4948999;28;20464;-64
2022/04/05 02:40:36;;;;;;;5.22;4.03;;;;;;;;;;4951332;28;20523;-63
2022/04/05 02:43:03;;;;;;;7.45;4.45;;;;;;;;;;4951332;28;20500;-63
2022/04/05 02:45:29;;;;;;;5.70;4.03;;;;;;;;;;4954209;28;20400;-63
2022/04/05 02:47:54;;;;;;;6.13;4.15;;;;;;;;;;4952843;28;20342;-63
2022/04/05 02:50:20;;;;;;;5.93;4.07;;;;;;;;;;4952968;28;20030;-63
2022/04/05 02:52:45;;;;;;;6.32;3.90;;;;;;;;;;4954336;28;20360;-64
2022/04/05 02:55:11;;;;;;;5.55;4.03;;;;;;;;;;4952758;28;20342;-63
2022/04/05 02:57:40;;;;;;;6.63;4.38;;;;;;;;;;4953088;28;20450;-63
2022/04/05 03:00:11;;;;;;;6.68;4.03;;;;;;;;;;4952852;28;20136;-63
2022/04/05 03:02:36;;;;;;;6.07;4.05;;;;;;;;;;4952638;28;20333;-64
2022/04/05 03:05:05;;;;;;;8.15;4.70;;;;;;;;;;4952856;28;20021;-63
2022/04/05 03:07:30;;;;;;;4.78;3.50;;;;;;;;;;4953480;28;20357;-63
2022/04/05 03:09:55;;;;;;;6.70;4.35;;;;;;;;;;4952699;28;20302;-63
2022/04/05 03:12:21;;;;;;;4.97;4.22;;;;;;;;;;4952551;28;20568;-63
2022/04/05 03:14:46;;;;;;;7.00;4.55;;;;;;;;;;4952476;28;20025;-63
2022/04/05 03:17:12;;;;;;;10.10;4.03;;;;;;;;;;4934888;28;20322;-63
2022/04/05 03:19:37;;;;;;;6.10;4.00;;;;;;;;;;4953749;28;20494;-63
2022/04/05 03:22:05;;;;;;;6.10;3.90;;;;;;;;;;4952159;28;20492;-63
2022/04/05 03:24:31;;;;;;;11.05;3.88;;;;;;;;;;4953022;28;20344;-63
2022/04/05 03:26:58;;;;;;;6.32;3.67;;;;;;;;;;4953103;28;20368;-62
2022/04/05 03:29:25;;;;;;;8.00;4.43;;;;;;;;;;4952100;28;20453;-63
2022/04/05 03:31:50;;;;;;;7.80;4.40;;;;;;;;;;4952247;28;20508;-63
2022/04/05 03:34:15;;;;;;;6.05;4.35;;;;;;;;;;4951874;28;20472;-63
2022/04/05 03:36:44;;;;;;;5.63;4.20;;;;;;;;;;4952037;28;20434;-63
2022/04/05 03:39:10;;;;;;;4.50;3.57;;;;;;;;;;4944628;28;20054;-63
2022/04/05 03:41:36;;;;;;;7.25;3.97;;;;;;;;;;4953849;28;20038;-62
2022/04/05 03:44:03;;;;;;;4.80;3.58;;;;;;;;;;4951885;28;20092;-63
2022/04/05 03:46:28;;;;;;;5.75;3.92;;;;;;;;;;4952236;28;20034;-64
2022/04/05 03:48:53;;;;;;;8.02;3.88;;;;;;;;;;4951666;28;20460;-63
2022/04/05 03:51:18;;;;;;;8.52;4.70;;;;;;;;;;4952152;28;20037;-63
2022/04/05 03:53:44;;;;;;;5.53;3.72;;;;;;;;;;4951412;28;20310;-63
2022/04/05 03:56:09;;;;;;;7.07;4.20;;;;;;;;;;4951844;28;20034;-63
2022/04/05 03:58:34;;;;;;;6.93;4.13;;;;;;;;;;4951213;28;20544;-63
2022/04/05 04:01:00;;;;;;;5.70;4.03;;;;;;;;;;4951979;28;20099;-64
2022/04/05 04:03:25;;;;;;;6.45;4.22;;;;;;;;;;4951312;28;20422;-63
2022/04/05 04:05:50;;;;;;;6.60;4.35;;;;;;;;;;4951569;28;20026;-63
2022/04/05 04:08:16;;;;;;;5.93;3.97;;;;;;;;;;4951417;28;20397;-63
2022/04/05 04:10:41;;;;;;;6.25;4.32;;;;;;;;;;4952460;28;20345;-63
2022/04/05 04:13:06;;;;;;;5.95;4.15;;;;;;;;;;4951581;28;20452;-62
2022/04/05 04:15:32;;;;;;;7.55;4.53;;;;;;;;;;4951467;28;20120;-63
2022/04/05 04:17:57;;;;;;;6.50;4.43;;;;;;;;;;4951430;28;20410;-63
2022/04/05 04:20:22;;;;;;;8.55;4.32;;;;;;;;;;4952294;28;20425;-64
2022/04/05 04:22:47;;;;;;;5.70;3.63;;;;;;;;;;4951292;28;20061;-63
2022/04/05 04:25:13;;;;;;;6.63;3.80;;;;;;;;;;4951972;28;20412;-63
2022/04/05 04:27:38;;;;;;;7.05;4.63;;;;;;;;;;4951267;28;20029;-63
2022/04/05 04:30:04;;;;;;;8.45;4.38;;;;;;;;;;4952018;28;20441;-63
2022/04/05 04:32:29;;;;;;;6.25;4.22;;;;;;;;;;4951344;28;20315;-63
2022/04/05 04:34:55;;;;;;;5.75;3.78;;;;;;;;;;4953033;28;20442;-64
2022/04/05 04:37:20;;;;;;;6.22;3.30;;;;;;;;;;4950763;28;20524;-63
2022/04/05 04:39:45;;;;;;;7.55;4.28;;;;;;;;;;4943516;28;20417;-63
2022/04/05 04:42:12;;;;;;;4.57;3.55;;;;;;;;;;4951202;28;20341;-63
2022/04/05 04:44:37;;;;;;;6.03;3.97;;;;;;;;;;4951085;28;20326;-63
2022/04/05 04:47:03;;;;;;;5.65;3.80;;;;;;;;;;4950702;28;20466;-64
2022/04/05 04:49:28;;;;;;;5.93;4.00;;;;;;;;;;4951614;28;20392;-63
2022/04/05 04:51:54;;;;;;;6.00;3.63;;;;;;;;;;4950521;28;20338;-63
2022/04/05 04:54:19;;;;;;;6.22;4.60;;;;;;;;;;4951397;28;20052;-63
2022/04/05 04:56:44;;;;;;;6.75;4.18;;;;;;;;;;4950610;28;20030;-63
2022/04/05 04:59:10;;;;;;;6.35;4.00;;;;;;;;;;4950736;28;20429;-63
2022/04/05 05:01:35;;;;;;;6.63;3.97;;;;;;;;;;4950683;28;20075;-62
2022/04/05 05:04:00;;;;;;;5.18;3.83;;;;;;;;;;4950715;28;20348;-62
2022/04/05 05:06:26;;;;;;;5.13;3.70;;;;;;;;;;4950383;28;20034;-62
2022/04/05 05:08:51;;;;;;;5.07;3.90;;;;;;;;;;4950743;28;20346;-62
2022/04/05 05:11:16;;;;;;;7.95;3.70;;;;;;;;;;4950659;28;20389;-63
2022/04/05 05:13:42;;;;;;;5.72;3.50;;;;;;;;;;4951239;28;20381;-63
2022/04/05 05:16:07;;;;;;;6.75;3.67;;;;;;;;;;4950194;28;20141;-63
2022/04/05 05:18:32;;;;;;;5.97;4.10;;;;;;;;;;4950108;28;20053;-62
2022/04/05 05:20:58;;;;;;;6.28;4.05;;;;;;;;;;4950337;28;20468;-63
2022/04/05 05:23:23;;;;;;;6.30;4.05;;;;;;;;;;4950005;28;20088;-62
2022/04/05 05:25:49;;;;;;;8.07;4.75;;;;;;;;;;4951892;28;20433;-62
2022/04/05 05:28:14;;;;;;;6.75;4.32;;;;;;;;;;4950001;28;20373;-62
2022/04/05 05:30:40;;;;;;;5.00;3.75;;;;;;;;;;4951312;28;20026;-64
2022/04/05 05:33:05;;;;;;;7.22;3.67;;;;;;;;;;4950195;28;20341;-61
2022/04/05 05:35:31;;;;;;;7.05;4.18;;;;;;;;;;4949972;28;20411;-62
2022/04/05 05:37:57;;;;;;;6.15;4.07;;;;;;;;;;4949588;28;20034;-62
2022/04/05 05:40:22;;;;;;;4.88;3.45;;;;;;;;;;4950644;28;20030;-62
2022/04/05 05:42:48;;;;;;;5.70;3.70;;;;;;;;;;4950070;28;20444;-62
2022/04/05 05:45:14;;;;;;;5.55;3.83;;;;;;;;;;4949716;28;20413;-62
2022/04/05 05:47:39;;;;;;;5.65;3.63;;;;;;;;;;4950830;28;20422;-63
2022/04/05 05:50:05;;;;;;;7.05;4.35;;;;;;;;;;4949946;28;20365;-62
2022/04/05 05:52:30;;;;;;;5.32;3.80;;;;;;;;;;4951672;28;20330;-63
2022/04/05 05:54:55;;;;;;;6.88;4.10;;;;;;;;;;4951919;28;20390;-64
2022/04/05 05:57:21;;;;;;;7.93;4.47;;;;;;;;;;4950358;28;20567;-62
2022/04/05 05:59:46;;;;;;;5.47;3.65;;;;;;;;;;4949814;28;20412;-63
2022/04/05 06:02:11;;;;;;;6.38;4.22;;;;;;;;;;4950439;28;20434;-62
2022/04/05 06:04:36;;;;;;;6.90;4.25;;;;;;;;;;4950737;28;20530;-62
2022/04/05 06:07:02;;;;;;;5.88;3.70;;;;;;;;;;4949708;28;20384;-62
2022/04/05 06:09:27;;;;;;;7.25;3.88;;;;;;;;;;4951112;28;20510;-63
2022/04/05 06:11:52;;;;;;;6.18;3.45;;;;;;;;;;4949712;28;20441;-62
2022/04/05 06:14:18;;;;;;;4.90;3.80;;;;;;;;;;4949892;28;20037;-62
2022/04/05 06:16:43;;;;;;;6.35;3.83;;;;;;;;;;4950831;28;20433;-63
2022/04/05 06:19:08;;;;;;;5.95;4.13;;;;;;;;;;4953546;28;20030;-63
2022/04/05 06:21:33;;;;;;;7.43;4.85;;;;;;;;;;4953307;28;20508;-62
2022/04/05 06:23:59;;;;;;;6.50;4.18;;;;;;;;;;4953473;28;20464;-63
2022/04/05 06:26:24;;;;;;;5.85;3.83;;;;;;;;;;4953330;28;20029;-63
2022/04/05 06:28:49;;;;;;;7.35;4.28;;;;;;;;;;4953491;28;20113;-62
2022/04/05 06:31:15;;;;;;;5.18;3.88;;;;;;;;;;4954729;28;20453;-62
2022/04/05 06:33:40;;;;;;;7.25;4.10;;;;;;;;;;4954222;28;20433;-63
2022/04/05 06:36:05;;;;;;;4.57;3.72;;;;;;;;;;4953404;28;20368;-62
2022/04/05 06:38:31;;;;;;;7.15;4.40;;;;;;;;;;4953466;28;20568;-63
2022/04/05 06:40:57;;;;;;;7.95;4.32;;;;;;;;;;4953087;28;20468;-62
2022/04/05 06:43:24;;;;;;;6.13;3.78;;;;;;;;;;4953177;28;20330;-63
2022/04/05 06:45:49;;;;;;;7.13;4.60;;;;;;;;;;4952461;28;20400;-63
2022/04/05 06:48:15;;;;;;;9.07;5.60;;;;;;;;;;4954477;28;20322;-63
2022/04/05 06:50:40;;;;;;;9.23;4.95;;;;;;;;;;4953200;28;20122;-63
2022/04/05 06:53:07;;;;;;;7.50;4.97;;;;;;;;;;4935843;28;20464;-62
2022/04/05 06:55:32;;;;;;;6.18;4.18;;;;;;;;;;4953456;28;20385;-63
2022/04/05 06:57:58;;;;;;;8.60;4.60;;;;;;;;;;4953008;28;20120;-63
2022/04/05 07:00:25;;;;;;;8.63;5.15;;;;;;;;;;4952674;28;20743;-62
2022/04/05 07:02:52;;;;;;;7.65;4.60;;;;;;;;;;4954388;28;20417;-63
2022/04/05 07:05:17;;;;;;;6.68;4.28;;;;;;;;;;4952588;28;20084;-62
2022/04/05 07:07:43;;;;;;;7.88;4.35;;;;;;;;;;4952820;28;20504;-62
2022/04/05 07:10:10;;;;;;;8.93;4.93;;;;;;;;;;4952381;28;20345;-62
2022/04/05 07:12:36;;;;;;;7.95;4.63;;;;;;;;;;4952771;28;20979;-62
2022/04/05 07:15:01;;;;;;;6.72;4.10;;;;;;;;;;4953857;28;20026;-63
2022/04/05 07:17:26;;;;;;;5.65;4.15;;;;;;;;;;4950931;28;20441;-62
2022/04/05 07:19:52;;;;;;;8.00;4.50;;;;;;;;;;4952223;28;20345;-62
2022/04/05 07:22:18;;;;;;;6.30;4.00;;;;;;;;;;4952600;28;20460;-63
2022/04/05 07:24:43;;;;;;;6.22;4.00;;;;;;;;;;4952294;28;20453;-63
2022/04/05 07:27:09;;;;;;;5.28;4.22;;;;;;;;;;4953049;28;20030;-62
2022/04/05 07:29:34;;;;;;;8.30;4.43;;;;;;;;;;4950963;28;20460;-63
2022/04/05 07:32:00;;;;;;;5.57;4.15;;;;;;;;;;4952247;28;20364;-62
2022/04/05 07:34:26;;;;;;;6.55;4.03;;;;;;;;;;4952279;28;20021;-62
2022/04/05 07:36:51;;;;;;;7.28;4.38;;;;;;;;;;4952263;28;20044;-63
2022/04/05 07:39:18;;;;;;;6.47;4.10;;;;;;;;;;4951595;28;20584;-63
2022/04/05 07:41:43;;;;;;;8.05;4.45;;;;;;;;;;4952031;28;20325;-62
2022/04/05 07:44:09;;;;;;;6.82;4.20;;;;;;;;;;4952903;28;20307;-62
2022/04/05 07:46:35;;;;;;;5.50;4.25;;;;;;;;;;4952541;28;20081;-62
2022/04/05 07:49:01;;;;;;;6.07;3.40;;;;;;;;;;4953101;28;20357;-62
2022/04/05 07:51:27;;;;;;;6.05;3.88;;;;;;;;;;4951961;28;20385;-63
2022/04/05 07:53:52;;;;;;;6.28;3.88;;;;;;;;;;4952105;28;20524;-62
2022/04/05 07:56:17;;;;;;;5.97;3.92;;;;;;;;;;4951680;28;20452;-62
2022/04/05 07:58:43;;;;;;;6.15;4.15;;;;;;;;;;4953165;28;20572;-62
2022/04/05 08:01:09;;;;;;;7.05;3.85;;;;;;;;;;4951457;28;20441;-63
2022/04/05 08:03:35;;;;;;;5.70;3.42;;;;;;;;;;4951856;28;20325;-62
2022/04/05 08:06:00;;;;;;;6.15;3.85;;;;;;;;;;4951738;28;20346;-63
2022/04/05 08:08:25;;;;;;;5.55;3.67;;;;;;;;;;4951782;28;20392;-62
2022/04/05 08:10:51;;;;;;;7.57;3.53;;;;;;;;;;4951331;28;20487;-62
2022/04/05 08:13:16;;;;;;;5.03;3.47;;;;;;;;;;4951401;28;20414;-63
2022/04/05 08:15:43;;;;;;;5.43;3.42;;;;;;;;;;4951227;28;20438;-63
2022/04/05 08:18:11;;;;;;;5.47;3.55;;;;;;;;;;4951215;28;20466;-63
2022/04/05 08:20:39;;;;;;;5.65;3.72;;;;;;;;;;4951323;28;20476;-62
2022/04/05 08:23:05;;;;;;;6.15;4.03;;;;;;;;;;4952493;28;20519;-63
2022/04/05 08:25:30;;;;;;;5.78;3.55;;;;;;;;;;4951305;28;20393;-62
2022/04/05 08:27:57;;;;;;;5.75;3.60;;;;;;;;;;4951152;28;20413;-63
2022/04/05 08:30:22;;;;;;;5.57;3.20;;;;;;;;;;4952019;28;20373;-63
2022/04/05 08:32:48;;;;;;;4.78;3.10;;;;;;;;;;4952038;28;20092;-63
2022/04/05 08:35:18;;;;;;;7.60;3.78;;;;;;;;;;4951192;28;20318;-62
2022/04/05 08:37:45;;;;;;;7.00;3.70;;;;;;;;;;4951930;28;20425;-62
2022/04/05 08:40:12;;;;;;;5.55;3.03;;;;;;;;;;4950344;28;20432;-62
2022/04/05 08:42:41;;;;;;;6.28;3.55;;;;;;;;;;4950528;28;20517;-62
2022/04/05 08:45:10;;;;;;;5.18;3.33;;;;;;;;;;4950780;28;20354;-63
2022/04/05 08:47:41;;;;;;;5.93;3.42;;;;;;;;;;4950780;28;20424;-63
2022/04/05 08:50:07;;;;;;;6.05;4.15;;;;;;;;;;4950543;28;20418;-63
2022/04/05 08:52:34;;;;;;;5.35;3.60;;;;;;;;;;4933193;28;20460;-63
2022/04/05 08:55:00;;;;;;;7.90;4.32;;;;;;;;;;4950641;28;20128;-63
2022/04/05 08:57:25;;;;;;;5.53;3.95;;;;;;;;;;4950761;28;20437;-63
2022/04/05 08:59:51;;;;;;;6.90;4.25;;;;;;;;;;4950772;28;20412;-62
2022/04/05 09:02:26;;;;;;;8.48;4.50;;;;;;;;;;4950713;28;20434;-64
2022/04/05 09:04:52;;;;;;;6.57;4.28;;;;;;;;;;4950334;28;20461;-63
2022/04/05 09:07:40;;;;;;;9.00;4.13;;;;;;;;;;4950459;28;20349;-62
2022/04/05 09:10:10;;;;;;;6.18;3.83;;;;;;;;;;4950055;28;20034;-62
2022/04/05 09:12:39;;;;;;;7.63;3.83;;;;;;;;;;4951241;28;20352;-63
2022/04/05 09:15:09;;;;;;;;;;;;;;;;;;4950552;28;20124;-64
2022/04/05 09:17:42;;;;;;;8.10;3.85;;;;;;;;;;4950036;28;20336;-62
2022/04/05 09:20:10;;;;;;;6.50;4.07;;;;;;;;;;4950335;28;20373;-63
2022/04/05 09:22:36;;;;;;;7.03;4.07;;;;;;;;;;4950396;28;20337;-62
2022/04/05 09:25:06;;;;;;;4.97;3.70;;;;;;;;;;4950090;28;20326;-62
2022/04/05 09:27:48;;;;;;;6.35;4.25;;;;;;;;;;4951064;28;20446;-63
2022/04/05 09:30:16;;;;;;;7.85;3.88;;;;;;;;;;4950168;28;20469;-62
2022/04/05 09:32:43;;;;;;;6.80;4.05;;;;;;;;;;4950556;28;20445;-62
2022/04/05 09:35:10;;;;;;;6.75;3.85;;;;;;;;;;4949648;28;20449;-62
2022/04/05 09:37:38;;;;;;;7.60;4.38;;;;;;;;;;4950110;28;20393;-63
2022/04/05 09:40:19;;;;;;;7.65;4.00;;;;;;;;;;4949595;28;20440;-63
2022/04/05 09:43:07;;;;;;;6.72;3.95;;;;;;;;;;4949554;28;20461;-62
2022/04/05 09:45:47;;;;;;;7.83;4.13;;;;;;;;;;4949779;28;20483;-62
2022/04/05 09:48:15;;;;;;;6.47;4.00;;;;;;;;;;4949599;28;20452;-62
2022/04/05 09:51:04;;;;;;;6.43;3.92;;;;;;;;;;4950633;28;20483;-62
2022/04/05 09:53:55;;;;;;;5.40;3.97;;;;;;;;;;4949068;28;20316;-62
2022/04/05 09:56:25;;;;;;;6.78;3.53;;;;;;;;;;4949484;28;20858;-62
2022/04/05 09:58:54;;;;;;;5.13;3.67;;;;;;;;;;4949478;28;20053;-62
2022/04/05 10:01:22;;;;;;;7.00;4.35;;;;;;;;;;4950173;28;20318;-62
2022/04/05 10:04:01;;;;;;;9.98;4.85;;;;;;;;;;4949729;28;20250;-62
2022/04/05 10:06:28;;;;;;;5.18;4.20;;;;;;;;;;4949772;28;20505;-62
2022/04/05 10:08:55;;;;;;;7.72;4.28;;;;;;;;;;4949886;28;20056;-62
2022/04/05 10:11:23;;;;;;;7.57;3.70;;;;;;;;;;4949831;28;20607;-62
2022/04/05 10:13:49;;;;;;;8.05;3.70;;;;;;;;;;4949141;28;20430;-62
2022/04/05 10:16:14;;;;;;;6.03;3.72;;;;;;;;;;4949980;28;20345;-63
2022/04/05 10:18:40;;;;;;;7.50;3.80;;;;;;;;;;4949106;28;20450;-63
2022/04/05 10:21:05;;;;;;;5.85;3.20;;;;;;;;;;4949425;28;20380;-62
2022/04/05 10:23:31;;;;;;;7.00;3.72;;;;;;;;;;4949380;28;20364;-62
2022/04/05 10:25:57;;;;;;;8.30;3.75;;;;;;;;;;4950722;28;20379;-62
2022/04/05 10:28:25;;;;;;;5.68;3.40;;;;;;;;;;4949064;28;20328;-62
2022/04/05 10:30:55;;;;;;;6.53;3.78;;;;;;;;;;4932058;28;20029;-62
2022/04/05 10:33:25;;;;;;;5.68;4.10;;;;;;;;;;4949385;28;20441;-63
2022/04/05 10:35:58;;;;;;;7.45;3.78;;;;;;;;;;4932337;28;20480;-63
2022/04/05 10:38:24;;;;;;;4.70;3.25;;;;;;;;;;4948952;28;20457;-63
2022/04/05 10:41:19;;;;;;;5.53;3.40;;;;;;;;;;4949289;28;20495;-62
2022/04/05 10:44:08;;;;;;;8.23;4.05;;;;;;;;;;4949723;28;20302;-62
2022/04/05 10:46:41;;;;;;;8.32;4.18;;;;;;;;;;4948822;28;20456;-63
2022/04/05 10:49:07;;;;;;;7.68;4.28;;;;;;;;;;4950013;28;20377;-62
2022/04/05 10:52:11;;;;;;;6.50;4.00;;;;;;;;;;4949801;28;20357;-63
2022/04/05 10:54:42;;;;;;;7.85;3.85;;;;;;;;;;4949015;28;20516;-62
2022/04/05 10:57:26;;;;;;;4.68;3.47;;;;;;;;;;4949314;28;20488;-64
2022/04/05 10:59:55;;;;;;;6.00;3.63;;;;;;;;;;4949615;28;20354;-63
2022/04/05 11:02:46;;;;;;;;;;;;;;;;;;4950092;28;20421;-63
2022/04/05 11:05:15;;;;;;;6.78;3.17;;;;;;;;;;4949576;28;19917;-62
2022/04/05 11:07:52;;;;;;;6.22;3.40;;;;;;;;;;4952497;28;20038;-62
2022/04/05 11:10:25;;;;;;;6.57;3.88;;;;;;;;;;4952481;28;20344;-62
2022/04/05 11:13:05;;;;;;;7.72;4.30;;;;;;;;;;4952509;28;20607;-62
2022/04/05 11:15:42;;;;;;;6.40;3.65;;;;;;;;;;4953773;28;20380;-63
2022/04/05 11:18:09;;;;;;;9.05;4.28;;;;;;;;;;4952251;28;20038;-62
2022/04/05 11:20:36;;;;;;;8.98;3.90;;;;;;;;;;4952297;28;20049;-62
2022/04/05 11:23:02;;;;;;;7.72;4.13;;;;;;;;;;4952365;28;20508;-62
2022/04/05 11:25:29;;;;;;;6.97;3.30;;;;;;;;;;4952019;28;20100;-62
2022/04/05 11:27:55;;;;;;;8.48;4.18;;;;;;;;;;4934584;28;20121;-63
2022/04/05 11:30:21;;;;;;;9.25;4.78;;;;;;;;;;4951945;28;20349;-63
2022/04/05 11:33:15;;;;;;;10.82;4.50;;;;;;;;;;4952682;28;20030;-62
2022/04/05 11:35:59;;;;;;;7.60;4.05;;;;;;;;;;4952779;28;20107;-62
2022/04/05 11:38:35;;;;;;;10.00;4.38;;;;;;;;;;4951499;28;20361;-63
2022/04/05 11:41:08;;;;;;;10.02;4.78;;;;;;;;;;4952895;28;20381;-62
2022/04/05 11:43:35;;;;;;;13.80;4.18;;;;;;;;;;4951334;28;20443;-63
2022/04/05 11:46:04;;;;;;;6.05;3.95;;;;;;;;;;4951930;28;20521;-63
2022/04/05 11:48:30;;;;;;;9.02;4.35;;;;;;;;;;4952758;28;20283;-63
2022/04/05 11:50:59;;;;;;;8.57;4.50;;;;;;;;;;4953404;28;20116;-62
2022/04/05 11:53:29;;;;;;;6.20;3.75;;;;;;;;;;4952197;28;20423;-62
2022/04/05 11:56:05;;;;;;;8.82;4.07;;;;;;;;;;4951523;28;20041;-62
2022/04/05 11:58:34;;;;;;;11.65;5.28;;;;;;;;;;4951762;28;20400;-63
2022/04/05 12:01:03;;;;;;;9.10;4.35;;;;;;;;;;4951690;28;20337;-62
2022/04/05 12:03:29;;;;;;;9.85;4.78;;;;;;;;;;4951379;28;20361;-63
2022/04/05 12:05:54;;;;;;;12.13;5.20;;;;;;;;;;4952277;28;20310;-62
2022/04/05 12:08:21;;;;;;;7.05;3.70;;;;;;;;;;4951450;28;20340;-62
2022/04/05 12:10:46;;;;;;;10.90;5.53;;;;;;;;;;4951187;28;20468;-62
2022/04/05 12:13:12;;;;;;;8.82;4.65;;;;;;;;;;4951571;28;20465;-63
2022/04/05 12:15:38;;;;;;;8.07;4.38;;;;;;;;;;4951601;28;20144;-62
2022/04/05 12:18:26;;;;;;;19.10;6.38;;;;;;;;;;4951193;28;20357;-62
2022/04/05 12:20:54;;;;;;;11.05;4.75;;;;;;;;;;4948621;28;20441;-63
2022/04/05 12:23:21;;;;;;;7.95;4.07;;;;;;;;;;4948820;28;20445;-62
2022/04/05 12:26:05;;;;;;;9.85;5.25;;;;;;;;;;4950949;28;20426;-63
2022/04/05 12:28:31;;;;;;;11.52;4.88;;;;;;;;;;4950452;28;20447;-62
2022/04/05 12:31:24;;;;;;;6.57;4.20;;;;;;;;;;4950372;28;20034;-63
2022/04/05 12:34:01;;;;;;;9.10;4.65;;;;;;;;;;4947806;28;20346;-63
2022/04/05 12:36:34;;;;;;;11.38;4.82;;;;;;;;;;4950399;28;20397;-62
2022/04/05 12:39:01;;;;;;;14.75;5.45;;;;;;;;;;4951111;28;20337;-63
2022/04/05 12:41:26;;;;;;;10.30;4.35;;;;;;;;;;4950546;28;20026;-62
2022/04/05 12:44:05;;;;;;;9.02;5.28;;;;;;;;;;4950565;28;20091;-63
2022/04/05 12:46:59;;;;;;;10.57;5.35;;;;;;;;;;4951441;28;20421;-62
2022/04/05 12:49:34;;;;;;;10.07;5.30;;;;;;;;;;4950246;28;20451;-63
2022/04/05 12:52:10;;;;;;;11.38;5.60;;;;;;;;;;4950779;28;20434;-63
2022/04/05 12:54:38;;;;;;;13.43;6.10;;;;;;;;;;4950775;28;20318;-63
2022/04/05 12:57:13;;;;;;;20.27;7.43;;;;;;;;;;4950765;28;20442;-62
2022/04/05 12:59:38;;;;;;;18.55;7.85;;;;;;;;;;4950752;28;20034;-62
2022/04/05 13:02:04;;;;;;;19.13;6.95;;;;;;;;;;4951821;28;20057;-62
2022/04/05 13:04:29;;;;;;;16.00;7.15;;;;;;;;;;4950783;28;20504;-63
2022/04/05 13:06:59;;;;;;;18.98;8.70;;;;;;;;;;4950735;28;20057;-62
2022/04/05 13:09:29;;;;;;;16.25;7.05;;;;;;;;;;4951159;28;20111;-62
2022/04/05 13:12:08;;;;;;;18.23;7.57;;;;;;;;;;4950213;28;20445;-62
2022/04/05 13:14:34;;;;;;;16.88;7.35;;;;;;;;;;4950604;28;20422;-62
2022/04/05 13:17:00;;;;;;;15.32;7.47;;;;;;;;;;4950341;28;20560;-63
2022/04/05 13:19:25;;;;;;;16.42;7.72;;;;;;;;;;4950028;28;20453;-63
2022/04/05 13:21:52;;;;;;;16.83;6.32;;;;;;;;;;4949868;28;20513;-62
2022/04/05 13:24:20;;;;;;;17.23;7.28;;;;;;;;;;4949963;28;20184;-62
2022/04/05 13:26:47;;;;;;;14.65;6.85;;;;;;;;;;4950310;28;20465;-63
2022/04/05 13:29:26;;;;;;;13.95;6.38;;;;;;;;;;4950771;28;20460;-63
2022/04/05 13:32:01;;;;;;;20.17;7.75;;;;;;;;;;4950126;28;20428;-63
2022/04/05 13:34:28;;;;;;;14.88;6.38;;;;;;;;;;4950065;28;20464;-62
2022/04/05 13:36:54;;;;;;;17.40;6.93;;;;;;;;;;4949614;28;20445;-63
2022/04/05 13:39:21;;;;;;;20.40;7.60;;;;;;;;;;4949552;28;20478;-62
2022/04/05 13:41:47;;;;;;;17.90;7.40;;;;;;;;;;4949756;28;20040;-62
2022/04/05 13:44:13;;;;;;;21.70;7.85;;;;;;;;;;4950580;28;20406;-63
2022/04/05 13:46:39;;;;;;;16.05;7.45;;;;;;;;;;4949534;28;20441;-62
2022/04/05 13:49:07;;;;;;;17.08;7.93;;;;;;;;;;4949924;28;20535;-62
2022/04/05 13:51:34;;;;;;;16.63;8.57;;;;;;;;;;4949925;28;20317;-62
2022/04/05 13:53:59;;;;;;;14.40;6.95;;;;;;;;;;4949642;28;20349;-62
2022/04/05 13:56:24;;;;;;;17.92;7.95;;;;;;;;;;4949779;28;20388;-63
2022/04/05 13:58:50;;;;;;;13.85;7.55;;;;;;;;;;4949677;28;20103;-64
2022/04/05 14:01:15;;;;;;;15.88;6.55;;;;;;;;;;4951421;28;20513;-63
2022/04/05 14:03:40;;;;;;;17.88;8.18;;;;;;;;;;4949705;28;20501;-63
2022/04/05 14:06:06;;;;;;;17.17;8.15;;;;;;;;;;4949524;28;20103;-62
2022/04/05 14:08:33;;;;;;;15.50;7.95;;;;;;;;;;4948987;28;20101;-62
2022/04/05 14:10:59;;;;;;;14.13;6.88;;;;;;;;;;4950128;28;20029;-63
2022/04/05 14:13:24;;;;;;;15.02;7.75;;;;;;;;;;4949448;28;20445;-62
2022/04/05 14:15:49;;;;;;;14.60;7.18;;;;;;;;;;4936080;28;20049;-63
2022/04/05 14:18:15;;;;;;;16.65;7.28;;;;;;;;;;4949452;28;20444;-62
2022/04/05 14:20:41;;;;;;;13.98;6.60;;;;;;;;;;4949536;28;20465;-62
2022/04/05 14:23:06;;;;;;;14.65;6.80;;;;;;;;;;4949361;28;20376;-62
2022/04/05 14:25:31;;;;;;;17.67;8.23;;;;;;;;;;4949859;28;20501;-63
2022/04/05 14:27:57;;;;;;;14.93;7.57;;;;;;;;;;4950339;28;20100;-62
2022/04/05 14:30:24;;;;;;;14.82;7.22;;;;;;;;;;4949327;28;20517;-63
2022/04/05 14:32:49;;;;;;;13.23;6.10;;;;;;;;;;4950448;28;20414;-63
2022/04/05 14:35:14;;;;;;;17.90;7.32;;;;;;;;;;4949338;28;20456;-63
2022/04/05 14:37:41;;;;;;;14.98;7.63;;;;;;;;;;4949485;28;20449;-62
2022/04/05 14:40:07;;;;;;;11.35;5.93;;;;;;;;;;4952249;28;20441;-62
2022/04/05 14:42:33;;;;;;;13.27;6.70;;;;;;;;;;4954745;28;20452;-62
2022/04/05 14:44:59;;;;;;;11.20;6.15;;;;;;;;;;4953006;28;20026;-63